Terminal Aerodrome Forecast
Issued by NWS Sterling, VA

Current Version | Previous Version | Graphics & Text | Print | Product List | Glossary On
Versions: 1 2 3 4 5 6 7 8 9 10 11 12 13 14 15 16 17 18 19 20 21 22 23 24
031
FTUS41 KLWX 190528
TAFDCA
TAF
KDCA 190528Z 1906/2006 20016G29KT P6SM -SHRA OVC070
     FM190900 23019G35KT P6SM -SHRA OVC035
     FM191200 30024G40KT P6SM SCT040
     FM191800 30020G34KT P6SM SCT040
     FM200000 30014G25KT P6SM FEW040=

USA.gov is the U.S. government's official web portal to all federal, state and local government web resources and services.